Terminal Aerodrome Forecast
Issued by NWS

Home | Current Version | Previous Version | Text Only | Print | Product List | Glossary On
Versions: 1 2 3 4 5 6 7 8 9 10 11 12 13
557
FTUS43 KGRB 242328
TAFMTW
TAF
KMTW 242328Z 2500/2524 21013KT P6SM SCT050
     FM250100 24006KT P6SM SCT060 BKN090
     FM250900 02006KT 3SM BR SCT002
      TEMPO 2510/2514 1SM BR OVC002
     FM251600 09009G15KT P6SM SCT005 BKN012=

USA.gov is the U.S. government's official web portal to all federal, state and local government web resources and services.